Weather at Slovenj Gradec Airfield

Public forecast

Using degrees Celsius for public forecast. Weather courtesy of forecast.io.

Closest aviation weather report (METAR) to Slovenj Gradec Airfield

Closest report is Maribor Edvard Rusjan Airport, 23.5 nm (43.6 km) E.

2024/05/24 01:00 (retrieved 35 minutes ago)

LJMB 240100Z AUTO VRB02KT 9999 NCD 12/11 Q1016

Closest aviation forecast (TAF) to Slovenj Gradec Airfield

Forecast is more than 6 hours old.

Closest forecast is Bolzano Airport, 156.7 nm (290.3 km) W.

2024/05/23 18:18 (retrieved 7 hours ago)

TAF LIPB 232110Z 2318/2418 CNL